createdAt,value
2022-12-17T00:02:35.802Z,27.63
2022-12-17T00:05:24.798Z,27.61
2022-12-17T00:08:20.606Z,27.60
2022-12-17T00:11:09.288Z,27.61
2022-12-17T00:13:58.229Z,27.65
2022-12-17T00:16:46.877Z,27.70
2022-12-17T00:19:35.784Z,27.60
2022-12-17T00:22:24.585Z,27.53
2022-12-17T00:25:13.234Z,27.45
2022-12-17T00:28:01.700Z,27.57
2022-12-17T00:30:50.346Z,27.49
2022-12-17T00:33:38.944Z,27.53
2022-12-17T00:36:27.420Z,27.54
2022-12-17T00:39:16.416Z,27.58
2022-12-17T00:42:05.051Z,27.57
2022-12-17T00:44:53.413Z,27.36
2022-12-17T00:47:41.992Z,27.48
2022-12-17T00:50:31.949Z,27.52
2022-12-17T00:53:20.981Z,27.58
2022-12-17T00:56:10.167Z,27.61
2022-12-17T00:58:59.036Z,27.57
2022-12-17T01:01:48.688Z,27.55
2022-12-17T01:04:37.449Z,27.60
2022-12-17T01:07:25.928Z,27.56
2022-12-17T01:10:14.399Z,27.58
2022-12-17T01:13:02.982Z,27.53
2022-12-17T01:15:51.275Z,27.55
2022-12-17T01:18:40.938Z,27.60
2022-12-17T01:21:29.521Z,27.60
2022-12-17T01:24:18.312Z,27.66
2022-12-17T01:27:10.838Z,27.64
2022-12-17T01:29:59.265Z,27.71
2022-12-17T01:32:47.847Z,27.78
2022-12-17T01:35:36.892Z,27.77
2022-12-17T01:38:35.181Z,27.75
2022-12-17T01:41:25.347Z,27.68
2022-12-17T01:44:13.856Z,27.79
2022-12-17T01:47:11.765Z,27.85
2022-12-17T01:50:05.496Z,27.89
2022-12-17T01:52:54.334Z,28.01
2022-12-17T01:55:43.468Z,27.95
2022-12-17T01:58:33.022Z,27.89
2022-12-17T02:01:21.926Z,27.86
2022-12-17T02:04:11.283Z,27.83
2022-12-17T02:07:08.936Z,27.88
2022-12-17T02:10:16.017Z,27.92
2022-12-17T02:13:17.555Z,28.03
2022-12-17T02:16:14.830Z,28.08
2022-12-17T02:19:13.756Z,28.03
2022-12-17T02:22:05.894Z,28.05
2022-12-17T02:25:01.353Z,28.10
2022-12-17T02:27:51.679Z,28.20
2022-12-17T02:30:41.210Z,28.26
2022-12-17T02:33:31.045Z,28.26
2022-12-17T02:36:25.741Z,28.29
2022-12-17T02:39:14.186Z,28.30
2022-12-17T02:42:11.430Z,28.29
2022-12-17T02:48:05.127Z,28.32
2022-12-17T02:50:53.717Z,28.30
2022-12-17T02:53:42.589Z,28.29
2022-12-17T02:56:31.241Z,28.26
2022-12-17T02:59:19.621Z,28.41
2022-12-17T03:02:08.866Z,28.37
2022-12-17T03:05:10.527Z,28.40
2022-12-17T03:08:06.424Z,28.38
2022-12-17T03:10:55.243Z,28.41
2022-12-17T03:13:48.990Z,28.41
2022-12-17T03:16:39.078Z,28.52
2022-12-17T03:19:27.833Z,28.55
2022-12-17T03:22:16.395Z,28.54
2022-12-17T03:25:05.208Z,28.67
2022-12-17T03:28:01.417Z,28.61
2022-12-17T03:30:50.107Z,28.61
2022-12-17T03:33:39.051Z,28.64
2022-12-17T03:36:28.018Z,28.66
2022-12-17T03:39:33.382Z,28.65
2022-12-17T03:42:22.415Z,28.71
2022-12-17T03:45:11.101Z,28.71
2022-12-17T03:47:59.587Z,28.69
2022-12-17T03:50:48.190Z,28.76
2022-12-17T03:53:37.018Z,28.73
2022-12-17T03:56:26.253Z,28.77
2022-12-17T03:59:14.959Z,28.71
2022-12-17T04:02:03.488Z,28.73
2022-12-17T04:04:52.363Z,28.75
2022-12-17T04:07:40.687Z,28.78
2022-12-17T04:10:29.536Z,28.77
2022-12-17T04:13:18.006Z,28.81
2022-12-17T04:16:06.522Z,28.81
2022-12-17T04:18:55.410Z,28.84
2022-12-17T04:21:44.229Z,28.85
2022-12-17T04:24:32.984Z,28.83
2022-12-17T04:27:21.454Z,28.81
2022-12-17T04:30:09.787Z,28.78
2022-12-17T04:32:58.201Z,28.87
2022-12-17T04:35:46.555Z,28.85
2022-12-17T04:38:35.441Z,28.86
2022-12-17T04:41:24.039Z,28.95
2022-12-17T04:44:32.363Z,28.90
2022-12-17T04:47:21.043Z,28.98
2022-12-17T04:50:09.560Z,28.91
2022-12-17T04:53:18.026Z,28.97
2022-12-17T04:56:07.615Z,28.92
2022-12-17T04:58:58.799Z,29.10
2022-12-17T05:01:47.619Z,29.02
2022-12-17T05:04:36.033Z,29.06
2022-12-17T05:07:24.270Z,29.10
2022-12-17T05:10:14.132Z,29.09
2022-12-17T05:13:02.587Z,29.09
2022-12-17T05:15:53.463Z,29.19
2022-12-17T05:18:42.913Z,29.14
2022-12-17T05:21:33.483Z,29.16
2022-12-17T05:24:22.462Z,29.15
2022-12-17T05:27:11.045Z,29.21
2022-12-17T05:29:59.733Z,29.17
2022-12-17T05:33:05.272Z,29.19
2022-12-17T05:35:53.560Z,29.24
2022-12-17T05:38:42.175Z,29.21
2022-12-17T05:41:30.418Z,29.26
2022-12-17T05:44:18.836Z,29.22
2022-12-17T05:47:07.558Z,29.31
2022-12-17T05:49:56.371Z,29.29
2022-12-17T05:52:44.800Z,29.40
2022-12-17T05:55:33.384Z,29.56
2022-12-17T05:58:32.802Z,29.46
2022-12-17T06:01:24.056Z,29.51
2022-12-17T06:04:12.952Z,29.52
2022-12-17T06:07:01.398Z,29.73
2022-12-17T06:09:49.796Z,29.65
2022-12-17T06:12:38.464Z,29.75
2022-12-17T06:15:28.493Z,29.66
2022-12-17T06:18:18.116Z,29.59
2022-12-17T06:21:06.950Z,29.59
2022-12-17T06:23:55.684Z,29.69
2022-12-17T06:26:44.340Z,29.64
2022-12-17T06:29:33.601Z,29.63
2022-12-17T06:32:22.374Z,29.69
2022-12-17T06:35:10.817Z,29.75
2022-12-17T06:37:59.502Z,29.67
2022-12-17T06:40:48.165Z,29.68
2022-12-17T06:43:36.771Z,29.74
2022-12-17T06:46:25.314Z,29.69
2022-12-17T06:49:24.699Z,29.70
2022-12-17T06:52:13.918Z,29.75
2022-12-17T06:55:02.319Z,29.83
2022-12-17T06:57:51.049Z,29.78
2022-12-17T07:00:39.362Z,29.77
2022-12-17T07:03:31.281Z,29.77
2022-12-17T07:06:22.542Z,29.78
2022-12-17T07:09:11.321Z,29.74
2022-12-17T07:12:00.870Z,29.74
2022-12-17T07:14:50.396Z,29.73
2022-12-17T07:17:39.132Z,29.71
2022-12-17T07:20:28.228Z,29.71
2022-12-17T07:23:17.436Z,29.71
2022-12-17T07:26:06.021Z,29.73
2022-12-17T07:28:55.083Z,29.75
2022-12-17T07:31:43.539Z,29.78
2022-12-17T07:34:31.925Z,29.74
2022-12-17T07:37:20.934Z,29.79
2022-12-17T07:40:09.602Z,29.75
2022-12-17T07:42:59.633Z,29.70
2022-12-17T07:45:48.546Z,29.70
2022-12-17T07:48:37.016Z,29.71
2022-12-17T07:51:25.357Z,29.69
2022-12-17T07:54:38.831Z,29.67
2022-12-17T07:57:27.070Z,29.67
2022-12-17T08:00:15.496Z,29.67
2022-12-17T08:03:04.088Z,29.72
2022-12-17T08:05:52.658Z,29.70
2022-12-17T08:08:41.060Z,29.70
2022-12-17T08:11:29.458Z,29.73
2022-12-17T08:14:18.162Z,29.75
2022-12-17T08:17:06.684Z,29.74
2022-12-17T08:19:55.195Z,29.80
2022-12-17T08:22:43.895Z,29.74
2022-12-17T08:25:32.456Z,29.73
2022-12-17T08:28:48.893Z,29.72
2022-12-17T08:31:30.760Z,29.73
2022-12-17T08:34:19.189Z,29.75
2022-12-17T08:37:08.263Z,29.69
2022-12-17T08:39:56.737Z,29.74
2022-12-17T08:42:45.286Z,29.73
2022-12-17T08:45:33.706Z,29.74
2022-12-17T08:48:28.884Z,29.70
2022-12-17T08:51:17.370Z,29.70
2022-12-17T08:54:06.065Z,29.72
2022-12-17T08:56:54.824Z,29.72
2022-12-17T08:59:45.774Z,29.70
2022-12-17T09:02:34.365Z,29.70
2022-12-17T09:05:23.146Z,29.75
2022-12-17T09:08:20.048Z,29.75
2022-12-17T09:11:08.674Z,29.71
2022-12-17T09:13:57.793Z,29.77
2022-12-17T09:16:46.335Z,29.76
2022-12-17T09:19:34.847Z,29.70
2022-12-17T09:22:23.284Z,29.78
2022-12-17T09:25:11.504Z,29.70
2022-12-17T09:28:00.233Z,29.72
2022-12-17T09:30:48.896Z,29.68
2022-12-17T09:33:38.525Z,29.65
2022-12-17T09:36:28.265Z,29.80
2022-12-17T09:39:16.551Z,29.75
2022-12-17T09:42:34.189Z,29.79
2022-12-17T09:45:32.889Z,29.78
2022-12-17T09:48:47.401Z,29.69
2022-12-17T09:51:44.411Z,29.64
2022-12-17T09:55:00.834Z,29.69
2022-12-17T09:57:54.583Z,29.67
2022-12-17T10:00:48.799Z,29.63
2022-12-17T10:03:45.053Z,29.59
2022-12-17T10:06:39.594Z,29.62
2022-12-17T10:09:34.919Z,29.60
2022-12-17T10:12:39.080Z,29.62
2022-12-17T10:15:28.922Z,29.61
2022-12-17T10:18:17.675Z,29.62
2022-12-17T10:21:11.912Z,29.62
2022-12-17T10:24:00.322Z,29.62
2022-12-17T10:26:51.649Z,29.57
2022-12-17T10:29:48.475Z,29.54
2022-12-17T10:32:37.448Z,29.55
2022-12-17T10:35:47.719Z,29.43
2022-12-17T10:38:47.051Z,29.40
2022-12-17T10:41:44.474Z,29.39
2022-12-17T10:44:44.431Z,29.38
2022-12-17T10:47:35.487Z,29.40
2022-12-17T10:50:42.906Z,29.41
2022-12-17T10:53:41.295Z,29.39
2022-12-17T10:56:42.925Z,29.54
2022-12-17T10:59:34.597Z,29.56
2022-12-17T11:02:23.728Z,29.53
2022-12-17T11:05:14.250Z,29.47
2022-12-17T11:08:05.142Z,29.46
2022-12-17T11:11:01.650Z,29.41
2022-12-17T11:13:53.856Z,29.43
2022-12-17T11:16:50.069Z,29.50
2022-12-17T11:20:15.589Z,29.52
2022-12-17T11:23:06.749Z,29.50
2022-12-17T11:26:13.938Z,29.50
2022-12-17T11:29:02.628Z,29.44
2022-12-17T11:32:19.328Z,29.41
2022-12-17T11:35:40.028Z,29.44
2022-12-17T11:38:28.211Z,29.43
2022-12-17T11:41:40.229Z,29.47
2022-12-17T11:44:57.453Z,29.40
2022-12-17T11:48:02.648Z,29.42
2022-12-17T11:51:32.596Z,29.46
2022-12-17T11:54:46.132Z,29.48
2022-12-17T11:58:13.124Z,29.48
2022-12-17T12:01:27.288Z,29.44
2022-12-17T12:04:50.239Z,29.44
2022-12-17T12:07:58.827Z,29.44
2022-12-17T12:11:00.480Z,29.46
2022-12-17T12:14:20.403Z,29.43
2022-12-17T12:17:24.105Z,29.29
2022-12-17T12:20:12.195Z,29.22
2022-12-17T12:23:08.923Z,29.15
2022-12-17T12:26:33.042Z,29.12
2022-12-17T12:29:42.276Z,29.12
2022-12-17T12:33:02.252Z,29.10
2022-12-17T12:35:54.100Z,29.21
2022-12-17T12:38:50.687Z,29.25
2022-12-17T12:41:44.747Z,29.20
2022-12-17T12:44:59.851Z,29.14
2022-12-17T12:48:11.956Z,29.11
2022-12-17T12:51:11.513Z,28.94
2022-12-17T12:53:59.751Z,28.97
2022-12-17T12:56:56.382Z,28.91
2022-12-17T12:59:47.712Z,28.92
2022-12-17T13:02:50.350Z,28.90
2022-12-17T13:05:38.220Z,28.88
2022-12-17T13:08:11.205Z,28.78
2022-12-17T13:10:43.482Z,28.78
2022-12-17T13:13:37.516Z,28.79
2022-12-17T13:16:34.188Z,28.83
2022-12-17T13:19:21.213Z,28.77
2022-12-17T13:21:51.861Z,28.65
2022-12-17T13:24:30.248Z,28.67
2022-12-17T13:27:00.592Z,28.72
2022-12-17T13:29:35.963Z,28.65
2022-12-17T13:32:24.228Z,28.59
2022-12-17T13:35:33.411Z,28.64
2022-12-17T13:38:36.543Z,28.57
2022-12-17T13:41:11.036Z,28.65
2022-12-17T13:44:03.557Z,28.65
2022-12-17T13:46:48.685Z,28.68
2022-12-17T13:49:26.992Z,28.69
2022-12-17T13:52:20.145Z,28.71
2022-12-17T13:54:51.110Z,28.72
2022-12-17T13:57:24.581Z,28.75
2022-12-17T14:00:00.213Z,28.79
2022-12-17T14:02:41.557Z,28.82
2022-12-17T14:05:39.978Z,28.84
2022-12-17T14:08:11.012Z,29.02
2022-12-17T14:10:47.057Z,29.01
2022-12-17T14:13:18.954Z,29.09
2022-12-17T14:15:52.421Z,29.12
2022-12-17T14:18:24.224Z,29.14
2022-12-17T14:20:58.674Z,29.13
2022-12-17T14:23:36.160Z,29.14
2022-12-17T14:26:07.455Z,29.14
2022-12-17T14:28:39.537Z,29.12
2022-12-17T14:31:27.087Z,29.13
2022-12-17T14:34:13.864Z,29.02
2022-12-17T14:36:46.288Z,29.00
2022-12-17T14:39:50.356Z,28.99
2022-12-17T14:42:34.796Z,28.98
2022-12-17T14:45:27.142Z,28.98
2022-12-17T14:48:02.411Z,28.98
2022-12-17T14:50:36.326Z,28.96
2022-12-17T14:53:26.901Z,28.99
2022-12-17T14:58:17.959Z,29.01
2022-12-17T15:00:48.233Z,28.99
2022-12-17T15:03:28.210Z,28.99
2022-12-17T15:06:04.886Z,28.99
2022-12-17T15:08:38.893Z,28.97
2022-12-17T15:11:10.000Z,28.97
2022-12-17T15:13:40.282Z,28.96
2022-12-17T15:16:11.234Z,28.98
2022-12-17T15:18:41.519Z,28.99
2022-12-17T15:21:15.125Z,28.98
2022-12-17T15:23:48.062Z,28.96
2022-12-17T15:26:19.699Z,28.94
2022-12-17T15:28:49.847Z,28.93
2022-12-17T15:31:24.626Z,28.93
2022-12-17T15:33:56.312Z,28.93
2022-12-17T15:36:26.615Z,28.93
2022-12-17T15:38:56.892Z,28.91
2022-12-17T15:41:45.531Z,28.90
2022-12-17T15:44:15.791Z,28.91
2022-12-17T15:46:46.039Z,28.92
2022-12-17T15:49:16.784Z,28.90
2022-12-17T15:51:47.258Z,28.91
2022-12-17T15:54:18.519Z,28.90
2022-12-17T15:56:54.433Z,28.89
2022-12-17T15:59:25.360Z,28.90
2022-12-17T16:01:55.726Z,28.87
2022-12-17T16:04:25.904Z,28.88
2022-12-17T16:06:56.473Z,28.90
2022-12-17T16:09:29.426Z,28.88
2022-12-17T16:14:46.225Z,28.88
2022-12-17T16:17:16.357Z,28.90
2022-12-17T16:19:46.742Z,28.87
2022-12-17T16:22:35.250Z,28.86
2022-12-17T16:25:06.785Z,28.84
2022-12-17T16:27:37.215Z,28.84
2022-12-17T16:30:25.594Z,28.84
2022-12-17T16:32:55.992Z,28.82
2022-12-17T16:35:27.023Z,28.83
2022-12-17T16:37:57.912Z,28.80
2022-12-17T16:40:28.476Z,28.80
2022-12-17T16:42:59.010Z,28.81
2022-12-17T16:45:29.564Z,28.80
2022-12-17T16:47:59.765Z,28.80
2022-12-17T16:50:32.879Z,28.80
2022-12-17T16:53:05.092Z,28.82
2022-12-17T16:55:35.577Z,28.80
2022-12-17T16:58:06.110Z,28.81
2022-12-17T17:00:37.454Z,28.80
2022-12-17T17:03:08.524Z,28.80
2022-12-17T17:05:39.506Z,28.78
2022-12-17T17:08:10.250Z,28.77
2022-12-17T17:10:41.072Z,28.74
2022-12-17T17:13:11.799Z,28.75
2022-12-17T17:15:41.914Z,28.76
2022-12-17T17:18:12.263Z,28.80
2022-12-17T17:20:42.940Z,28.76
2022-12-17T17:23:14.377Z,28.73
2022-12-17T17:25:58.205Z,28.72
2022-12-17T17:28:28.978Z,28.68
2022-12-17T17:31:06.052Z,28.71
2022-12-17T17:33:38.783Z,28.72
2022-12-17T17:36:14.956Z,28.69
2022-12-17T17:39:04.757Z,28.70
2022-12-17T17:41:37.543Z,28.69
2022-12-17T17:44:14.614Z,28.68
2022-12-17T17:46:45.254Z,28.67
2022-12-17T17:49:15.749Z,28.72
2022-12-17T17:54:37.191Z,28.67
2022-12-17T17:57:07.662Z,28.68
2022-12-17T17:59:38.114Z,28.67
2022-12-17T18:05:12.601Z,28.65
2022-12-17T18:07:42.874Z,28.62
2022-12-17T18:10:13.590Z,28.61
2022-12-17T18:15:48.122Z,28.59
2022-12-17T18:18:18.386Z,28.56
2022-12-17T18:20:48.600Z,28.55
2022-12-17T18:23:18.845Z,28.53
2022-12-17T18:25:49.089Z,28.54
2022-12-17T18:28:38.484Z,28.57
2022-12-17T18:31:27.019Z,28.50
2022-12-17T18:34:00.598Z,28.52
2022-12-17T18:39:37.567Z,28.54
2022-12-17T18:42:26.051Z,28.53
2022-12-17T18:44:56.251Z,28.51
2022-12-17T18:47:46.499Z,28.50
2022-12-17T18:50:16.669Z,28.47
2022-12-17T18:52:46.668Z,28.46
2022-12-17T18:55:35.193Z,28.44
2022-12-17T18:58:23.972Z,28.46
2022-12-17T19:00:54.221Z,28.42
2022-12-17T19:03:24.464Z,28.40
2022-12-17T19:05:54.628Z,28.40
2022-12-17T19:08:25.044Z,28.35
2022-12-17T19:10:55.141Z,28.35
2022-12-17T19:13:25.174Z,28.33
2022-12-17T19:15:55.491Z,28.36
2022-12-17T19:18:26.090Z,28.38
2022-12-17T19:21:00.687Z,28.34
2022-12-17T19:23:33.634Z,28.34
2022-12-17T19:26:12.516Z,28.32
2022-12-17T19:28:47.902Z,28.34
2022-12-17T19:31:19.488Z,28.34
2022-12-17T19:33:50.352Z,28.31
2022-12-17T19:36:39.151Z,28.30
2022-12-17T19:39:15.185Z,28.26
2022-12-17T19:41:45.526Z,28.29
2022-12-17T19:44:18.333Z,28.29
2022-12-17T19:46:48.483Z,28.25
2022-12-17T19:49:19.506Z,28.24
2022-12-17T19:51:49.653Z,28.19
2022-12-17T19:54:19.717Z,28.18
2022-12-17T19:56:49.820Z,28.15
2022-12-17T19:59:19.883Z,28.21
2022-12-17T20:01:51.332Z,28.20
2022-12-17T20:04:21.974Z,28.16
2022-12-17T20:06:52.057Z,28.23
2022-12-17T20:09:22.066Z,28.18
2022-12-17T20:11:52.063Z,28.18
2022-12-17T20:14:28.602Z,28.15
2022-12-17T20:17:02.115Z,28.13
2022-12-17T20:19:34.469Z,28.10
2022-12-17T20:22:07.346Z,28.09
2022-12-17T20:24:39.369Z,28.09
2022-12-17T20:27:10.200Z,28.13
2022-12-17T20:29:40.450Z,28.12
2022-12-17T20:32:10.721Z,28.15
2022-12-17T20:34:40.875Z,28.07
2022-12-17T20:37:10.840Z,28.06
2022-12-17T20:39:41.026Z,28.06
2022-12-17T20:42:11.477Z,28.03
2022-12-17T20:44:41.859Z,28.06
2022-12-17T20:47:12.242Z,28.01
2022-12-17T20:49:42.373Z,28.07
2022-12-17T20:52:12.348Z,28.02
2022-12-17T20:54:42.309Z,28.00
2022-12-17T20:57:12.312Z,27.98
2022-12-17T20:59:42.319Z,28.01
2022-12-17T21:02:13.087Z,27.99
2022-12-17T21:04:43.287Z,27.94
2022-12-17T21:07:13.237Z,27.97
2022-12-17T21:09:43.336Z,27.96
2022-12-17T21:12:15.650Z,27.93
2022-12-17T21:14:45.830Z,27.92
2022-12-17T21:17:18.297Z,27.94
2022-12-17T21:19:48.747Z,27.96
2022-12-17T21:22:18.925Z,27.94
2022-12-17T21:24:48.898Z,27.93
2022-12-17T21:27:19.425Z,27.94
2022-12-17T21:29:49.681Z,27.96
2022-12-17T21:32:19.651Z,27.95
2022-12-17T21:34:49.767Z,27.90
2022-12-17T21:37:19.799Z,27.94
2022-12-17T21:39:50.684Z,27.99
2022-12-17T21:42:41.148Z,28.01
2022-12-17T21:45:12.207Z,27.89
2022-12-17T21:47:42.542Z,27.92
2022-12-17T21:50:12.704Z,27.84
2022-12-17T21:52:42.663Z,27.86
2022-12-17T21:55:12.772Z,27.84
2022-12-17T21:57:42.727Z,27.86
2022-12-17T22:00:13.393Z,27.87
2022-12-17T22:02:43.941Z,27.85
2022-12-17T22:05:17.773Z,27.80
2022-12-17T22:07:50.580Z,27.81
2022-12-17T22:10:43.639Z,27.78
2022-12-17T22:13:33.979Z,27.85
2022-12-17T22:16:09.286Z,27.88
2022-12-17T22:18:44.796Z,27.86
2022-12-17T22:21:15.216Z,27.81
2022-12-17T22:23:47.526Z,27.78
2022-12-17T22:26:20.409Z,27.83
2022-12-17T22:28:53.356Z,27.73
2022-12-17T22:31:43.291Z,27.76
2022-12-17T22:34:52.506Z,27.72
2022-12-17T22:39:52.874Z,27.76
2022-12-17T22:44:00.303Z,27.77
2022-12-17T22:44:37.552Z,27.75
2022-12-17T22:45:54.773Z,27.74
2022-12-17T22:48:26.631Z,27.69
2022-12-17T22:51:04.322Z,27.72
2022-12-17T22:53:43.565Z,27.75
2022-12-17T22:56:20.824Z,27.73
2022-12-17T22:59:04.120Z,27.75
2022-12-17T23:01:35.166Z,27.70
2022-12-17T23:04:06.087Z,27.69
2022-12-17T23:06:36.275Z,27.68
2022-12-17T23:09:06.277Z,27.68
2022-12-17T23:11:36.317Z,27.64
2022-12-17T23:14:08.816Z,27.62
2022-12-17T23:16:41.530Z,27.62
2022-12-17T23:19:13.228Z,27.63
2022-12-17T23:21:43.451Z,27.60
2022-12-17T23:24:13.644Z,27.59
2022-12-17T23:26:43.823Z,27.59
2022-12-17T23:29:19.761Z,27.52
2022-12-17T23:31:50.175Z,27.45
2022-12-17T23:34:20.330Z,27.44
2022-12-17T23:36:50.674Z,27.40
2022-12-17T23:39:21.006Z,27.38
2022-12-17T23:41:51.169Z,27.35
2022-12-17T23:44:21.176Z,27.33
2022-12-17T23:46:52.210Z,27.34
2022-12-17T23:49:22.353Z,27.33
2022-12-17T23:51:52.556Z,27.30
2022-12-17T23:54:44.174Z,27.33
2022-12-17T23:57:14.355Z,27.09
2022-12-17T23:59:44.557Z,27.14
